sensor_id;sensor_type;location;lat;lon;timestamp;pressure;altitude;pressure_sealevel;temperature;humidity
42705;BME280;28342;42.594;23.414;2023-02-12T00:01:30;95385.97;;;-1.41;53.55
42705;BME280;28342;42.594;23.414;2023-02-12T00:03:58;95353.22;;;-1.48;54.45
42705;BME280;28342;42.594;23.414;2023-02-12T00:06:24;95373.56;;;-1.14;53.44
42705;BME280;28342;42.594;23.414;2023-02-12T00:08:54;95367.25;;;-1.00;52.11
42705;BME280;28342;42.594;23.414;2023-02-12T00:11:25;95343.59;;;-0.98;51.59
42705;BME280;28342;42.594;23.414;2023-02-12T00:13:52;95381.50;;;-0.59;52.01
42705;BME280;28342;42.594;23.414;2023-02-12T00:16:22;95346.88;;;-0.66;52.58
42705;BME280;28342;42.594;23.414;2023-02-12T00:18:52;95389.13;;;-0.39;51.44
42705;BME280;28342;42.594;23.414;2023-02-12T00:21:18;95371.75;;;-0.45;51.70
42705;BME280;28342;42.594;23.414;2023-02-12T00:23:44;95367.47;;;-0.40;50.88
42705;BME280;28342;42.594;23.414;2023-02-12T00:26:12;95368.34;;;-0.27;50.71
42705;BME280;28342;42.594;23.414;2023-02-12T00:28:38;95378.47;;;-0.19;50.75
42705;BME280;28342;42.594;23.414;2023-02-12T00:31:10;95351.69;;;-0.26;50.77
42705;BME280;28342;42.594;23.414;2023-02-12T00:33:36;95365.16;;;-0.11;49.92
42705;BME280;28342;42.594;23.414;2023-02-12T00:36:01;95369.75;;;0.05;48.30
42705;BME280;28342;42.594;23.414;2023-02-12T00:38:28;95373.50;;;0.09;48.78
42705;BME280;28342;42.594;23.414;2023-02-12T00:40:54;95377.28;;;0.13;48.92
42705;BME280;28342;42.594;23.414;2023-02-12T00:43:19;95361.63;;;0.13;48.18
42705;BME280;28342;42.594;23.414;2023-02-12T00:45:45;95346.75;;;0.14;47.46
42705;BME280;28342;42.594;23.414;2023-02-12T00:48:12;95331.47;;;0.17;47.87
42705;BME280;28342;42.594;23.414;2023-02-12T00:50:39;95318.66;;;0.16;48.10
42705;BME280;28342;42.594;23.414;2023-02-12T00:53:07;95345.94;;;0.32;47.84
42705;BME280;28342;42.594;23.414;2023-02-12T00:55:40;95342.53;;;0.31;48.54
42705;BME280;28342;42.594;23.414;2023-02-12T00:58:06;95335.81;;;0.23;49.22
42705;BME280;28342;42.594;23.414;2023-02-12T01:00:32;95340.75;;;0.13;48.81
42705;BME280;28342;42.594;23.414;2023-02-12T01:02:57;95314.84;;;-0.30;49.45
42705;BME280;28342;42.594;23.414;2023-02-12T01:05:24;95342.69;;;-0.12;49.87
42705;BME280;28342;42.594;23.414;2023-02-12T01:07:51;95333.28;;;-0.32;48.15
42705;BME280;28342;42.594;23.414;2023-02-12T01:10:19;95312.88;;;-0.53;47.43
42705;BME280;28342;42.594;23.414;2023-02-12T01:12:48;95327.63;;;-0.47;46.90
42705;BME280;28342;42.594;23.414;2023-02-12T01:15:14;95302.16;;;-0.81;46.46
42705;BME280;28342;42.594;23.414;2023-02-12T01:17:40;95336.19;;;-0.76;44.95
42705;BME280;28342;42.594;23.414;2023-02-12T01:20:08;95349.84;;;-0.81;46.53
42705;BME280;28342;42.594;23.414;2023-02-12T01:22:36;95357.31;;;-0.66;44.71
42705;BME280;28342;42.594;23.414;2023-02-12T01:25:03;95351.81;;;-0.76;45.11
42705;BME280;28342;42.594;23.414;2023-02-12T01:27:28;95352.31;;;-0.86;45.14
42705;BME280;28342;42.594;23.414;2023-02-12T01:29:54;95347.94;;;-0.92;46.40
42705;BME280;28342;42.594;23.414;2023-02-12T01:32:19;95354.38;;;-0.95;46.51
42705;BME280;28342;42.594;23.414;2023-02-12T01:34:45;95347.13;;;-0.93;49.67
42705;BME280;28342;42.594;23.414;2023-02-12T01:37:14;95334.41;;;-1.01;49.16
42705;BME280;28342;42.594;23.414;2023-02-12T01:39:40;95344.63;;;-0.81;49.23
42705;BME280;28342;42.594;23.414;2023-02-12T01:42:05;95325.44;;;-1.05;50.71
42705;BME280;28342;42.594;23.414;2023-02-12T01:44:32;95328.19;;;-1.00;50.18
42705;BME280;28342;42.594;23.414;2023-02-12T01:47:01;95330.00;;;-1.00;49.34
42705;BME280;28342;42.594;23.414;2023-02-12T01:49:51;95330.91;;;-1.13;49.78
42705;BME280;28342;42.594;23.414;2023-02-12T01:52:26;95321.66;;;-1.09;51.59
42705;BME280;28342;42.594;23.414;2023-02-12T01:54:54;95320.50;;;-1.13;49.64
42705;BME280;28342;42.594;23.414;2023-02-12T01:57:23;95308.91;;;-1.17;49.92
42705;BME280;28342;42.594;23.414;2023-02-12T01:59:53;95309.28;;;-1.13;50.78
42705;BME280;28342;42.594;23.414;2023-02-12T02:02:21;95304.28;;;-1.15;49.79
42705;BME280;28342;42.594;23.414;2023-02-12T02:04:49;95303.28;;;-1.14;51.04
42705;BME280;28342;42.594;23.414;2023-02-12T02:07:16;95304.16;;;-1.20;50.28
42705;BME280;28342;42.594;23.414;2023-02-12T02:09:42;95322.19;;;-1.25;49.53
42705;BME280;28342;42.594;23.414;2023-02-12T02:12:08;95312.72;;;-1.38;49.12
42705;BME280;28342;42.594;23.414;2023-02-12T02:14:56;95312.91;;;-1.39;49.87
42705;BME280;28342;42.594;23.414;2023-02-12T02:17:41;95325.91;;;-1.39;50.22
42705;BME280;28342;42.594;23.414;2023-02-12T02:31:41;95331.63;;;-1.56;52.71
42705;BME280;28342;42.594;23.414;2023-02-12T02:34:31;95309.31;;;-1.70;53.96
42705;BME280;28342;42.594;23.414;2023-02-12T02:37:57;95323.22;;;-1.51;55.99
42705;BME280;28342;42.594;23.414;2023-02-12T02:40:10;95315.66;;;-1.59;54.74
42705;BME280;28342;42.594;23.414;2023-02-12T02:45:35;95298.38;;;-1.78;55.44
42705;BME280;28342;42.594;23.414;2023-02-12T02:48:13;95291.81;;;-1.81;55.71
42705;BME280;28342;42.594;23.414;2023-02-12T02:51:04;95302.38;;;-1.76;56.39
42705;BME280;28342;42.594;23.414;2023-02-12T02:53:44;95318.47;;;-1.61;56.82
42705;BME280;28342;42.594;23.414;2023-02-12T02:56:15;95317.47;;;-1.60;56.72
42705;BME280;28342;42.594;23.414;2023-02-12T02:58:55;95318.22;;;-1.53;57.28
42705;BME280;28342;42.594;23.414;2023-02-12T03:01:48;95324.31;;;-1.40;57.05
42705;BME280;28342;42.594;23.414;2023-02-12T03:04:32;95305.25;;;-1.59;57.37
42705;BME280;28342;42.594;23.414;2023-02-12T03:07:05;95328.31;;;-1.38;56.95
42705;BME280;28342;42.594;23.414;2023-02-12T03:09:36;95329.06;;;-1.31;56.69
42705;BME280;28342;42.594;23.414;2023-02-12T03:12:07;95324.16;;;-1.45;57.97
42705;BME280;28342;42.594;23.414;2023-02-12T03:14:44;95297.66;;;-1.61;59.74
42705;BME280;28342;42.594;23.414;2023-02-12T03:17:36;95312.75;;;-1.44;56.93
42705;BME280;28342;42.594;23.414;2023-02-12T03:20:11;95309.00;;;-1.55;58.31
42705;BME280;28342;42.594;23.414;2023-02-12T03:22:54;95299.94;;;-1.46;57.24
42705;BME280;28342;42.594;23.414;2023-02-12T03:25:25;95299.88;;;-1.39;57.38
42705;BME280;28342;42.594;23.414;2023-02-12T03:30:44;95314.66;;;-1.33;57.76
42705;BME280;28342;42.594;23.414;2023-02-12T03:36:10;95315.34;;;-1.19;56.51
42705;BME280;28342;42.594;23.414;2023-02-12T03:38:49;95314.38;;;-1.25;58.55
42705;BME280;28342;42.594;23.414;2023-02-12T03:49:30;95308.38;;;-1.01;58.80
42705;BME280;28342;42.594;23.414;2023-02-12T03:52:03;95266.94;;;-1.27;59.45
42705;BME280;28342;42.594;23.414;2023-02-12T03:54:35;95303.63;;;-1.10;59.87
42705;BME280;28342;42.594;23.414;2023-02-12T03:57:06;95305.09;;;-0.96;59.74
42705;BME280;28342;42.594;23.414;2023-02-12T03:59:37;95306.66;;;-0.88;60.16
42705;BME280;28342;42.594;23.414;2023-02-12T04:02:06;95298.09;;;-0.96;60.58
42705;BME280;28342;42.594;23.414;2023-02-12T04:04:32;95305.06;;;-0.89;61.37
42705;BME280;28342;42.594;23.414;2023-02-12T04:07:01;95313.00;;;-0.84;61.48
42705;BME280;28342;42.594;23.414;2023-02-12T04:09:27;95290.81;;;-0.87;61.35
42705;BME280;28342;42.594;23.414;2023-02-12T04:12:20;95294.78;;;-0.84;61.87
42705;BME280;28342;42.594;23.414;2023-02-12T04:18:03;95279.16;;;-1.03;63.42
42705;BME280;28342;42.594;23.414;2023-02-12T04:20:49;95304.94;;;-0.76;63.90
42705;BME280;28342;42.594;23.414;2023-02-12T04:23:22;95293.41;;;-0.87;65.50
42705;BME280;28342;42.594;23.414;2023-02-12T04:34:20;95316.50;;;-0.72;63.53
42705;BME280;28342;42.594;23.414;2023-02-12T04:37:15;95317.66;;;-0.68;63.66
42705;BME280;28342;42.594;23.414;2023-02-12T04:39:45;95317.53;;;-0.73;61.62
42705;BME280;28342;42.594;23.414;2023-02-12T04:42:14;95322.38;;;-0.58;59.98
42705;BME280;28342;42.594;23.414;2023-02-12T04:44:46;95326.78;;;-0.41;60.37
42705;BME280;28342;42.594;23.414;2023-02-12T04:47:13;95299.56;;;-0.45;59.84
42705;BME280;28342;42.594;23.414;2023-02-12T04:49:42;95327.91;;;-0.18;58.69
42705;BME280;28342;42.594;23.414;2023-02-12T04:52:08;95335.00;;;-0.07;59.08
42705;BME280;28342;42.594;23.414;2023-02-12T04:54:35;95340.56;;;-0.04;59.44
42705;BME280;28342;42.594;23.414;2023-02-12T04:57:03;95326.59;;;-0.09;59.12
42705;BME280;28342;42.594;23.414;2023-02-12T04:59:28;95326.50;;;-0.03;59.91
42705;BME280;28342;42.594;23.414;2023-02-12T05:01:57;95339.88;;;0.19;59.60
42705;BME280;28342;42.594;23.414;2023-02-12T05:04:24;95343.09;;;0.03;60.58
42705;BME280;28342;42.594;23.414;2023-02-12T05:06:50;95334.03;;;0.06;59.75
42705;BME280;28342;42.594;23.414;2023-02-12T05:09:19;95337.22;;;0.08;60.51
42705;BME280;28342;42.594;23.414;2023-02-12T05:11:46;95333.50;;;0.15;60.52
42705;BME280;28342;42.594;23.414;2023-02-12T05:14:12;95339.31;;;0.17;60.98
42705;BME280;28342;42.594;23.414;2023-02-12T05:16:38;95333.66;;;0.20;60.59
42705;BME280;28342;42.594;23.414;2023-02-12T05:19:04;95338.75;;;0.27;60.79
42705;BME280;28342;42.594;23.414;2023-02-12T05:21:30;95328.66;;;0.19;61.06
42705;BME280;28342;42.594;23.414;2023-02-12T05:23:55;95337.03;;;0.21;61.74
42705;BME280;28342;42.594;23.414;2023-02-12T05:26:21;95341.91;;;0.17;61.61
42705;BME280;28342;42.594;23.414;2023-02-12T05:28:48;95341.06;;;0.05;62.64
42705;BME280;28342;42.594;23.414;2023-02-12T05:31:17;95360.03;;;0.12;63.36
42705;BME280;28342;42.594;23.414;2023-02-12T05:33:44;95340.56;;;-0.04;63.31
42705;BME280;28342;42.594;23.414;2023-02-12T05:36:14;95374.66;;;0.13;63.53
42705;BME280;28342;42.594;23.414;2023-02-12T05:38:40;95382.69;;;0.00;64.28
42705;BME280;28342;42.594;23.414;2023-02-12T05:41:11;95371.81;;;-0.15;63.32
42705;BME280;28342;42.594;23.414;2023-02-12T05:43:38;95387.50;;;-0.04;64.15
42705;BME280;28342;42.594;23.414;2023-02-12T05:46:04;95371.66;;;-0.20;63.90
42705;BME280;28342;42.594;23.414;2023-02-12T05:48:31;95389.25;;;-0.16;65.40
42705;BME280;28342;42.594;23.414;2023-02-12T05:53:29;95394.56;;;-0.22;63.03
42705;BME280;28342;42.594;23.414;2023-02-12T05:56:04;95385.63;;;-0.33;64.40
42705;BME280;28342;42.594;23.414;2023-02-12T05:58:29;95387.75;;;-0.23;64.51
42705;BME280;28342;42.594;23.414;2023-02-12T06:00:54;95370.50;;;-0.24;65.26
42705;BME280;28342;42.594;23.414;2023-02-12T06:03:21;95388.41;;;-0.10;64.58
42705;BME280;28342;42.594;23.414;2023-02-12T06:05:50;95373.09;;;-0.06;64.52
42705;BME280;28342;42.594;23.414;2023-02-12T06:08:16;95394.91;;;0.18;63.59
42705;BME280;28342;42.594;23.414;2023-02-12T06:10:42;95393.56;;;0.27;64.15
42705;BME280;28342;42.594;23.414;2023-02-12T06:13:07;95397.69;;;0.35;63.86
42705;BME280;28342;42.594;23.414;2023-02-12T06:15:35;95393.47;;;0.34;64.99
42705;BME280;28342;42.594;23.414;2023-02-12T06:18:01;95383.34;;;0.25;65.60
42705;BME280;28342;42.594;23.414;2023-02-12T06:20:27;95401.44;;;0.39;66.14
42705;BME280;28342;42.594;23.414;2023-02-12T06:22:53;95408.19;;;0.46;66.40
42705;BME280;28342;42.594;23.414;2023-02-12T06:25:18;95401.78;;;0.42;66.62
42705;BME280;28342;42.594;23.414;2023-02-12T06:27:44;95409.28;;;0.39;67.21
42705;BME280;28342;42.594;23.414;2023-02-12T06:30:10;95399.97;;;0.43;67.61
42705;BME280;28342;42.594;23.414;2023-02-12T06:32:35;95395.59;;;0.55;67.73
42705;BME280;28342;42.594;23.414;2023-02-12T06:35:01;95395.81;;;0.53;67.97
42705;BME280;28342;42.594;23.414;2023-02-12T06:37:26;95405.47;;;0.53;67.74
42705;BME280;28342;42.594;23.414;2023-02-12T06:39:52;95388.88;;;0.47;68.04
42705;BME280;28342;42.594;23.414;2023-02-12T06:42:17;95404.31;;;0.49;68.48
42705;BME280;28342;42.594;23.414;2023-02-12T06:44:43;95397.63;;;0.53;69.01
42705;BME280;28342;42.594;23.414;2023-02-12T06:47:09;95416.69;;;0.53;69.90
42705;BME280;28342;42.594;23.414;2023-02-12T06:49:35;95405.59;;;0.58;69.12
42705;BME280;28342;42.594;23.414;2023-02-12T06:52:00;95424.63;;;0.47;70.39
42705;BME280;28342;42.594;23.414;2023-02-12T06:54:26;95418.81;;;0.45;71.08
42705;BME280;28342;42.594;23.414;2023-02-12T06:56:53;95401.16;;;0.28;71.12
42705;BME280;28342;42.594;23.414;2023-02-12T06:59:18;95410.84;;;0.40;71.33
42705;BME280;28342;42.594;23.414;2023-02-12T07:01:44;95400.13;;;0.29;71.41
42705;BME280;28342;42.594;23.414;2023-02-12T07:04:11;95404.72;;;0.34;72.07
42705;BME280;28342;42.594;23.414;2023-02-12T07:06:36;95417.09;;;0.39;71.38
42705;BME280;28342;42.594;23.414;2023-02-12T07:09:04;95407.56;;;0.44;71.03
42705;BME280;28342;42.594;23.414;2023-02-12T07:11:32;95398.56;;;0.28;70.46
42705;BME280;28342;42.594;23.414;2023-02-12T07:13:58;95407.97;;;0.29;71.21
42705;BME280;28342;42.594;23.414;2023-02-12T07:16:24;95417.38;;;0.49;71.28
42705;BME280;28342;42.594;23.414;2023-02-12T07:18:49;95422.31;;;0.39;71.02
42705;BME280;28342;42.594;23.414;2023-02-12T07:21:16;95434.63;;;0.50;71.27
42705;BME280;28342;42.594;23.414;2023-02-12T07:23:45;95415.50;;;0.38;71.67
42705;BME280;28342;42.594;23.414;2023-02-12T07:26:13;95409.16;;;0.34;71.78
42705;BME280;28342;42.594;23.414;2023-02-12T07:28:39;95410.56;;;0.48;71.39
42705;BME280;28342;42.594;23.414;2023-02-12T07:31:14;95402.91;;;0.35;71.95
42705;BME280;28342;42.594;23.414;2023-02-12T07:33:40;95422.41;;;0.62;71.31
42705;BME280;28342;42.594;23.414;2023-02-12T07:36:09;95403.19;;;0.26;71.72
42705;BME280;28342;42.594;23.414;2023-02-12T07:38:36;95417.91;;;0.39;72.11
42705;BME280;28342;42.594;23.414;2023-02-12T07:41:08;95397.81;;;0.40;71.64
42705;BME280;28342;42.594;23.414;2023-02-12T07:43:34;95425.69;;;0.57;71.53
42705;BME280;28342;42.594;23.414;2023-02-12T07:46:11;95419.66;;;0.57;71.79
42705;BME280;28342;42.594;23.414;2023-02-12T07:48:37;95413.03;;;0.43;72.02
42705;BME280;28342;42.594;23.414;2023-02-12T07:51:08;95410.84;;;0.40;72.37
42705;BME280;28342;42.594;23.414;2023-02-12T07:53:34;95423.75;;;0.53;71.97
42705;BME280;28342;42.594;23.414;2023-02-12T07:58:42;95423.28;;;0.56;72.36
42705;BME280;28342;42.594;23.414;2023-02-12T08:01:35;95440.81;;;0.67;72.59
42705;BME280;28342;42.594;23.414;2023-02-12T08:04:04;95434.00;;;0.66;72.10
42705;BME280;28342;42.594;23.414;2023-02-12T08:06:32;95445.78;;;0.57;72.63
42705;BME280;28342;42.594;23.414;2023-02-12T08:09:00;95452.22;;;0.54;72.98
42705;BME280;28342;42.594;23.414;2023-02-12T08:11:28;95408.63;;;0.25;72.96
42705;BME280;28342;42.594;23.414;2023-02-12T08:13:55;95455.75;;;0.60;73.15
42705;BME280;28342;42.594;23.414;2023-02-12T08:16:22;95461.88;;;0.54;73.36
42705;BME280;28342;42.594;23.414;2023-02-12T08:18:48;95445.53;;;0.47;73.41
42705;BME280;28342;42.594;23.414;2023-02-12T08:21:19;95457.72;;;0.65;73.24
42705;BME280;28342;42.594;23.414;2023-02-12T08:23:49;95467.28;;;0.71;73.30
42705;BME280;28342;42.594;23.414;2023-02-12T08:26:28;95461.72;;;0.67;73.30
42705;BME280;28342;42.594;23.414;2023-02-12T08:28:59;95460.00;;;0.73;72.70
42705;BME280;28342;42.594;23.414;2023-02-12T08:31:35;95472.28;;;0.72;72.57
42705;BME280;28342;42.594;23.414;2023-02-12T08:34:02;95482.09;;;0.88;72.35
42705;BME280;28342;42.594;23.414;2023-02-12T08:36:37;95472.22;;;0.90;72.36
42705;BME280;28342;42.594;23.414;2023-02-12T08:39:03;95455.28;;;0.81;71.75
42705;BME280;28342;42.594;23.414;2023-02-12T08:41:30;95473.38;;;0.95;71.70
42705;BME280;28342;42.594;23.414;2023-02-12T08:43:57;95481.47;;;1.05;71.79
42705;BME280;28342;42.594;23.414;2023-02-12T08:46:25;95484.00;;;1.11;71.72
42705;BME280;28342;42.594;23.414;2023-02-12T08:48:56;95472.19;;;1.09;71.58
42705;BME280;28342;42.594;23.414;2023-02-12T08:51:25;95497.53;;;1.20;71.89
42705;BME280;28342;42.594;23.414;2023-02-12T08:53:55;95495.84;;;1.26;71.56
42705;BME280;28342;42.594;23.414;2023-02-12T08:56:22;95480.72;;;1.16;71.48
42705;BME280;28342;42.594;23.414;2023-02-12T08:58:48;95488.66;;;1.21;71.87
42705;BME280;28342;42.594;23.414;2023-02-12T09:01:19;95485.84;;;1.23;71.17
42705;BME280;28342;42.594;23.414;2023-02-12T09:03:46;95494.34;;;1.18;71.95
42705;BME280;28342;42.594;23.414;2023-02-12T09:06:12;95503.31;;;1.10;72.27
42705;BME280;28342;42.594;23.414;2023-02-12T09:08:38;95503.31;;;1.10;72.41
42705;BME280;28342;42.594;23.414;2023-02-12T09:11:10;95494.78;;;1.15;72.44
42705;BME280;28342;42.594;23.414;2023-02-12T09:13:37;95489.44;;;1.10;72.37
42705;BME280;28342;42.594;23.414;2023-02-12T09:16:04;95501.94;;;1.08;72.53
42705;BME280;28342;42.594;23.414;2023-02-12T09:18:30;95504.19;;;1.04;73.12
42705;BME280;28342;42.594;23.414;2023-02-12T09:21:04;95492.19;;;1.15;72.72
42705;BME280;28342;42.594;23.414;2023-02-12T09:23:29;95499.75;;;1.05;73.19
42705;BME280;28342;42.594;23.414;2023-02-12T09:25:55;95498.88;;;1.11;72.89
42705;BME280;28342;42.594;23.414;2023-02-12T09:28:20;95490.03;;;1.12;73.45
42705;BME280;28342;42.594;23.414;2023-02-12T09:30:46;95482.25;;;1.05;73.20
42705;BME280;28342;42.594;23.414;2023-02-12T09:33:11;95504.56;;;1.08;73.85
42705;BME280;28342;42.594;23.414;2023-02-12T09:35:38;95483.28;;;0.93;74.69
42705;BME280;28342;42.594;23.414;2023-02-12T09:38:04;95500.22;;;1.02;74.81
42705;BME280;28342;42.594;23.414;2023-02-12T09:43:43;95512.06;;;1.16;74.64
42705;BME280;28342;42.594;23.414;2023-02-12T09:46:23;95503.16;;;1.05;74.98
42705;BME280;28342;42.594;23.414;2023-02-12T09:48:58;95498.16;;;1.04;75.57
42705;BME280;28342;42.594;23.414;2023-02-12T09:51:25;95497.28;;;1.10;75.08
42705;BME280;28342;42.594;23.414;2023-02-12T09:54:21;95502.19;;;1.18;74.91
42705;BME280;28342;42.594;23.414;2023-02-12T09:56:57;95491.41;;;1.26;73.83
42705;BME280;28342;42.594;23.414;2023-02-12T10:00:07;95520.53;;;1.41;73.80
42705;BME280;28342;42.594;23.414;2023-02-12T10:02:38;95509.56;;;1.21;74.33
42705;BME280;28342;42.594;23.414;2023-02-12T10:05:12;95509.94;;;1.36;74.13
42705;BME280;28342;42.594;23.414;2023-02-12T10:08:03;95518.94;;;1.52;73.98
42705;BME280;28342;42.594;23.414;2023-02-12T10:10:52;95518.75;;;1.54;73.36
42705;BME280;28342;42.594;23.414;2023-02-12T10:18:54;95524.91;;;1.71;73.02
42705;BME280;28342;42.594;23.414;2023-02-12T10:26:48;95531.03;;;1.65;72.68
42705;BME280;28342;42.594;23.414;2023-02-12T10:29:18;95532.38;;;1.67;72.42
42705;BME280;28342;42.594;23.414;2023-02-12T10:31:47;95536.50;;;1.75;72.95
42705;BME280;28342;42.594;23.414;2023-02-12T10:34:20;95520.47;;;1.60;72.92
42705;BME280;28342;42.594;23.414;2023-02-12T10:36:51;95533.22;;;1.79;72.33
42705;BME280;28342;42.594;23.414;2023-02-12T10:39:30;95555.84;;;1.97;72.33
42705;BME280;28342;42.594;23.414;2023-02-12T10:42:23;95549.84;;;1.85;72.29
42705;BME280;28342;42.594;23.414;2023-02-12T10:44:50;95540.16;;;1.86;72.31
42705;BME280;28342;42.594;23.414;2023-02-12T10:47:20;95536.28;;;1.88;72.58
42705;BME280;28342;42.594;23.414;2023-02-12T10:50:00;95542.31;;;1.77;72.69
42705;BME280;28342;42.594;23.414;2023-02-12T10:52:50;95541.28;;;1.78;73.03
42705;BME280;28342;42.594;23.414;2023-02-12T10:55:35;95537.44;;;1.92;72.63
42705;BME280;28342;42.594;23.414;2023-02-12T10:58:04;95540.84;;;2.04;72.39
42705;BME280;28342;42.594;23.414;2023-02-12T11:00:34;95539.72;;;2.00;72.53
42705;BME280;28342;42.594;23.414;2023-02-12T11:05:36;95521.97;;;2.02;72.39
42705;BME280;28342;42.594;23.414;2023-02-12T11:08:02;95530.25;;;2.11;72.24
42705;BME280;28342;42.594;23.414;2023-02-12T11:10:39;95504.69;;;2.01;72.14
42705;BME280;28342;42.594;23.414;2023-02-12T11:13:22;95506.94;;;2.09;72.49
42705;BME280;28342;42.594;23.414;2023-02-12T11:15:49;95533.19;;;2.26;71.79
42705;BME280;28342;42.594;23.414;2023-02-12T11:18:26;95533.09;;;2.33;72.26
42705;BME280;28342;42.594;23.414;2023-02-12T11:20:56;95523.84;;;2.42;72.00
42705;BME280;28342;42.594;23.414;2023-02-12T11:23:31;95530.75;;;2.60;71.84
42705;BME280;28342;42.594;23.414;2023-02-12T11:29:22;95517.31;;;2.56;70.97
42705;BME280;28342;42.594;23.414;2023-02-12T11:32:03;95523.47;;;2.62;70.00
42705;BME280;28342;42.594;23.414;2023-02-12T11:34:28;95527.13;;;2.89;69.98
42705;BME280;28342;42.594;23.414;2023-02-12T11:36:54;95531.94;;;2.92;70.04
42705;BME280;28342;42.594;23.414;2023-02-12T11:39:35;95513.06;;;2.79;69.68
42705;BME280;28342;42.594;23.414;2023-02-12T11:42:22;95519.44;;;2.71;69.86
42705;BME280;28342;42.594;23.414;2023-02-12T11:44:55;95513.78;;;2.62;69.88
42705;BME280;28342;42.594;23.414;2023-02-12T11:49:56;95521.56;;;2.86;70.05
42705;BME280;28342;42.594;23.414;2023-02-12T11:52:31;95515.84;;;2.89;70.07
42705;BME280;28342;42.594;23.414;2023-02-12T11:55:00;95524.47;;;3.01;69.53
42705;BME280;28342;42.594;23.414;2023-02-12T12:00:49;95523.19;;;3.04;69.72
42705;BME280;28342;42.594;23.414;2023-02-12T12:03:27;95538.81;;;3.10;69.56
42705;BME280;28342;42.594;23.414;2023-02-12T12:06:08;95535.78;;;3.18;69.80
42705;BME280;28342;42.594;23.414;2023-02-12T12:08:43;95538.81;;;3.10;69.98
42705;BME280;28342;42.594;23.414;2023-02-12T12:11:28;95527.47;;;2.93;69.72
42705;BME280;28342;42.594;23.414;2023-02-12T12:16:41;95549.28;;;3.10;69.76
42705;BME280;28342;42.594;23.414;2023-02-12T12:19:31;95534.84;;;3.08;69.92
42705;BME280;28342;42.594;23.414;2023-02-12T12:25:09;95531.59;;;3.17;69.81
42705;BME280;28342;42.594;23.414;2023-02-12T12:27:50;95528.13;;;3.28;69.22
42705;BME280;28342;42.594;23.414;2023-02-12T12:30:40;95545.06;;;3.38;69.14
42705;BME280;28342;42.594;23.414;2023-02-12T12:41:31;95567.44;;;3.57;67.77
42705;BME280;28342;42.594;23.414;2023-02-12T12:47:28;95562.06;;;3.52;66.12
42705;BME280;28342;42.594;23.414;2023-02-12T12:49:41;95562.66;;;3.54;66.35
42705;BME280;28342;42.594;23.414;2023-02-12T12:57:58;95559.50;;;3.69;65.79
42705;BME280;28342;42.594;23.414;2023-02-12T13:00:30;95567.03;;;3.65;66.55
42705;BME280;28342;42.594;23.414;2023-02-12T13:06:40;95564.31;;;3.60;66.20
42705;BME280;28342;42.594;23.414;2023-02-12T13:14:46;95572.75;;;3.62;66.82
42705;BME280;28342;42.594;23.414;2023-02-12T13:27:50;95578.06;;;3.50;67.15
42705;BME280;28342;42.594;23.414;2023-02-12T13:30:22;95576.56;;;3.54;66.91
42705;BME280;28342;42.594;23.414;2023-02-12T13:33:23;95577.91;;;3.57;67.11
42705;BME280;28342;42.594;23.414;2023-02-12T13:35:56;95587.69;;;3.62;66.59
42705;BME280;28342;42.594;23.414;2023-02-12T13:38:44;95583.91;;;3.69;66.27
42705;BME280;28342;42.594;23.414;2023-02-12T13:41:11;95582.22;;;3.63;66.53
42705;BME280;28342;42.594;23.414;2023-02-12T13:56:50;95573.53;;;3.17;67.98
42705;BME280;28342;42.594;23.414;2023-02-12T14:02:28;95586.69;;;3.34;68.45
42705;BME280;28342;42.594;23.414;2023-02-12T14:05:23;95584.94;;;3.23;68.25
42705;BME280;28342;42.594;23.414;2023-02-12T14:07:53;95606.06;;;3.33;68.35
42705;BME280;28342;42.594;23.414;2023-02-12T14:10:36;95599.06;;;3.22;68.85
42705;BME280;28342;42.594;23.414;2023-02-12T14:13:20;95597.13;;;3.17;69.00
42705;BME280;28342;42.594;23.414;2023-02-12T14:15:51;95599.06;;;3.22;69.21
42705;BME280;28342;42.594;23.414;2023-02-12T14:18:31;95602.63;;;3.04;69.56
42705;BME280;28342;42.594;23.414;2023-02-12T14:23:44;95606.94;;;3.22;69.50
42705;BME280;28342;42.594;23.414;2023-02-12T14:26:17;95623.22;;;3.24;69.59
42705;BME280;28342;42.594;23.414;2023-02-12T14:28:59;95609.66;;;3.15;69.45
42705;BME280;28342;42.594;23.414;2023-02-12T14:39:03;95647.44;;;3.43;69.06
42705;BME280;28342;42.594;23.414;2023-02-12T14:41:34;95638.34;;;3.34;69.01
42705;BME280;28342;42.594;23.414;2023-02-12T14:46:47;95649.88;;;3.21;69.79
42705;BME280;28342;42.594;23.414;2023-02-12T14:49:49;95655.25;;;3.26;69.99
42705;BME280;28342;42.594;23.414;2023-02-12T14:52:19;95671.34;;;3.18;69.78
42705;BME280;28342;42.594;23.414;2023-02-12T14:57:32;95656.97;;;3.20;69.57
42705;BME280;28342;42.594;23.414;2023-02-12T15:02:54;95683.78;;;3.22;69.93
42705;BME280;28342;42.594;23.414;2023-02-12T15:05:26;95681.63;;;3.08;70.38
42705;BME280;28342;42.594;23.414;2023-02-12T15:07:55;95677.63;;;3.05;70.40
42705;BME280;28342;42.594;23.414;2023-02-12T15:10:29;95681.28;;;3.04;70.16
42705;BME280;28342;42.594;23.414;2023-02-12T15:13:00;95700.44;;;2.93;70.20
42705;BME280;28342;42.594;23.414;2023-02-12T15:15:38;95691.56;;;2.82;70.71
42705;BME280;28342;42.594;23.414;2023-02-12T15:18:27;95704.34;;;2.79;70.63
42705;BME280;28342;42.594;23.414;2023-02-12T15:23:38;95711.97;;;2.92;70.63
42705;BME280;28342;42.594;23.414;2023-02-12T15:26:09;95718.19;;;2.91;70.66
42705;BME280;28342;42.594;23.414;2023-02-12T15:28:36;95726.88;;;2.91;70.96
42705;BME280;28342;42.594;23.414;2023-02-12T15:31:04;95711.97;;;2.80;70.47
42705;BME280;28342;42.594;23.414;2023-02-12T15:33:36;95739.06;;;2.74;71.03
42705;BME280;28342;42.594;23.414;2023-02-12T15:36:04;95742.84;;;2.78;71.02
42705;BME280;28342;42.594;23.414;2023-02-12T15:38:34;95736.34;;;2.69;71.07
42705;BME280;28342;42.594;23.414;2023-02-12T15:41:01;95727.09;;;2.66;71.35
42705;BME280;28342;42.594;23.414;2023-02-12T15:43:29;95745.00;;;2.81;70.96
42705;BME280;28342;42.594;23.414;2023-02-12T15:45:56;95745.44;;;2.90;70.81
42705;BME280;28342;42.594;23.414;2023-02-12T15:48:28;95726.09;;;2.67;70.76
42705;BME280;28342;42.594;23.414;2023-02-12T15:50:59;95758.13;;;2.93;70.72